BME weather

Broome International Airport
Broome, Western Australia, Australia

Public forecast

Using degrees Celsius for public forecast. Weather courtesy of forecast.io.

METAR (pilot weather report)

Retrieved 2019/02/20 13:00 UTC (4 minutes ago):

YBRM 201300Z AUTO 29006KT 9999 // SCT019 SCT024 29/25 Q1011

TAF (pilot weather forecast)

Retrieved 2019/02/20 12:36 UTC (28 minutes ago):

TAF YBRM 201102Z 2012/2112 27012KT 9999 BKN018 FM210000 25012KT 9999 SCT025 FM210400 26010KT CAVOK